createdAt,value
2023-09-06T00:02:16.708Z,13.07
2023-09-06T00:05:19.942Z,13.55
2023-09-06T00:08:22.842Z,9.32
2023-09-06T00:11:26.713Z,10.80
2023-09-06T00:14:30.904Z,14.97
2023-09-06T00:17:38.850Z,12.23
2023-09-06T00:20:41.807Z,13.07
2023-09-06T00:23:45.007Z,11.32
2023-09-06T00:26:48.472Z,12.55
2023-09-06T00:29:51.468Z,12.53
2023-09-06T00:32:54.519Z,12.80
2023-09-06T00:35:59.476Z,10.50
2023-09-06T00:39:02.409Z,13.50
2023-09-06T00:42:06.196Z,12.82
2023-09-06T00:45:09.300Z,18.73
2023-09-06T00:48:27.932Z,11.13
2023-09-06T00:51:34.114Z,11.45
2023-09-06T00:54:40.890Z,10.77
2023-09-06T00:57:44.511Z,13.35
2023-09-06T01:00:50.392Z,12.77
2023-09-06T01:03:53.413Z,11.93
2023-09-06T01:06:59.973Z,10.88
2023-09-06T01:10:04.836Z,12.98
2023-09-06T01:13:08.039Z,9.70
2023-09-06T01:16:11.692Z,11.53
2023-09-06T01:19:16.495Z,12.40
2023-09-06T01:22:32.808Z,15.15
2023-09-06T01:25:36.227Z,8.98
2023-09-06T01:28:41.168Z,12.43
2023-09-06T01:31:44.516Z,10.07
2023-09-06T01:34:47.394Z,13.27
2023-09-06T01:37:51.896Z,10.82
2023-09-06T01:40:55.237Z,10.63
2023-09-06T01:43:58.303Z,12.90
2023-09-06T01:47:01.088Z,10.67
2023-09-06T01:50:05.842Z,13.87
2023-09-06T01:53:08.895Z,11.88
2023-09-06T01:56:12.026Z,10.43
2023-09-06T01:59:14.736Z,10.85
2023-09-06T02:02:18.796Z,9.10
2023-09-06T02:05:22.038Z,10.93
2023-09-06T02:08:24.893Z,11.35
2023-09-06T02:11:27.972Z,11.25
2023-09-06T02:14:30.654Z,14.27
2023-09-06T02:17:37.170Z,11.27
2023-09-06T02:20:40.556Z,13.37
2023-09-06T02:23:44.685Z,11.57
2023-09-06T02:26:48.247Z,11.27
2023-09-06T02:29:53.023Z,9.98
2023-09-06T02:32:57.031Z,10.90
2023-09-06T02:35:59.764Z,10.50
2023-09-06T02:39:03.124Z,9.88
2023-09-06T02:42:05.925Z,10.90
2023-09-06T02:45:13.433Z,11.15
2023-09-06T02:48:19.924Z,10.50
2023-09-06T02:51:30.464Z,12.87
2023-09-06T02:54:33.170Z,12.02
2023-09-06T02:57:36.387Z,11.90
2023-09-06T03:00:44.062Z,11.55
2023-09-06T03:03:53.172Z,13.60
2023-09-06T03:06:59.070Z,10.73
2023-09-06T03:10:03.057Z,13.07
2023-09-06T03:13:07.012Z,13.90
2023-09-06T03:16:14.882Z,12.07
2023-09-06T03:19:18.637Z,11.50
2023-09-06T03:22:27.392Z,15.43
2023-09-06T03:25:30.750Z,13.40
2023-09-06T03:28:35.151Z,11.52
2023-09-06T03:31:44.125Z,15.20
2023-09-06T03:34:47.473Z,13.03
2023-09-06T03:37:53.568Z,15.67
2023-09-06T03:40:56.923Z,16.45
2023-09-06T03:44:01.285Z,10.43
2023-09-06T03:47:07.094Z,11.38
2023-09-06T03:50:10.233Z,12.70
2023-09-06T03:53:14.755Z,11.57
2023-09-06T03:56:17.558Z,14.30
2023-09-06T03:59:20.907Z,10.93
2023-09-06T04:02:28.774Z,14.50
2023-09-06T04:05:33.913Z,10.73
2023-09-06T04:08:38.093Z,12.90
2023-09-06T04:11:42.331Z,13.95
2023-09-06T04:14:45.204Z,13.38
2023-09-06T04:17:55.624Z,12.15
2023-09-06T04:21:01.309Z,12.17
2023-09-06T04:24:05.666Z,14.47
2023-09-06T04:27:08.421Z,16.90
2023-09-06T04:30:12.268Z,12.85
2023-09-06T04:33:16.189Z,14.38
2023-09-06T04:36:20.403Z,11.33
2023-09-06T04:39:26.473Z,11.80
2023-09-06T04:42:30.029Z,14.25
2023-09-06T04:45:33.996Z,12.02
2023-09-06T04:48:37.876Z,13.55
2023-09-06T04:51:42.424Z,14.17
2023-09-06T04:54:46.451Z,10.90
2023-09-06T04:57:50.915Z,14.52
2023-09-06T05:00:54.159Z,13.38
2023-09-06T05:03:57.274Z,16.10
2023-09-06T05:07:00.657Z,10.83
2023-09-06T05:10:04.960Z,21.90
2023-09-06T05:13:09.857Z,13.38
2023-09-06T05:16:13.408Z,11.93
2023-09-06T05:19:16.900Z,14.70
2023-09-06T05:22:20.517Z,10.27
2023-09-06T05:25:24.548Z,17.90
2023-09-06T05:28:27.486Z,13.75
2023-09-06T05:31:31.523Z,10.95
2023-09-06T05:34:34.668Z,13.75
2023-09-06T05:37:41.707Z,12.47
2023-09-06T05:40:44.985Z,11.63
2023-09-06T05:43:49.381Z,11.60
2023-09-06T05:46:52.618Z,11.00
2023-09-06T05:49:59.377Z,11.93
2023-09-06T05:53:02.319Z,12.17
2023-09-06T05:56:06.244Z,10.43
2023-09-06T05:59:09.222Z,10.93
2023-09-06T06:02:13.421Z,10.77
2023-09-06T06:05:20.077Z,9.30
2023-09-06T06:08:23.044Z,10.47
2023-09-06T06:11:28.389Z,9.77
2023-09-06T06:14:31.911Z,9.63
2023-09-06T06:17:35.055Z,8.57
2023-09-06T06:20:44.134Z,14.85
2023-09-06T06:23:49.311Z,12.90
2023-09-06T06:26:52.549Z,10.73
2023-09-06T06:29:55.786Z,14.38
2023-09-06T06:33:01.765Z,10.95
2023-09-06T06:36:08.334Z,11.38
2023-09-06T06:39:11.799Z,11.23
2023-09-06T06:42:14.879Z,10.47
2023-09-06T06:45:19.415Z,9.20
2023-09-06T06:48:23.200Z,12.55
2023-09-06T06:51:27.124Z,14.27
2023-09-06T06:54:30.238Z,10.27
2023-09-06T06:57:34.913Z,20.27
2023-09-06T07:00:38.074Z,12.00
2023-09-06T07:03:42.185Z,10.90
2023-09-06T07:06:46.037Z,9.48
2023-09-06T07:09:48.928Z,11.40
2023-09-06T07:12:52.003Z,9.93
2023-09-06T07:15:54.886Z,13.32
2023-09-06T07:18:59.993Z,10.18
2023-09-06T07:22:03.692Z,10.23
2023-09-06T07:25:09.407Z,8.53
2023-09-06T07:28:12.069Z,9.37
2023-09-06T07:31:16.024Z,8.60
2023-09-06T07:34:19.059Z,9.63
2023-09-06T07:37:22.431Z,8.63
2023-09-06T07:40:25.204Z,10.73
2023-09-06T07:43:30.040Z,7.60
2023-09-06T07:46:33.650Z,8.95
2023-09-06T07:49:36.909Z,8.05
2023-09-06T07:52:39.775Z,7.50
2023-09-06T07:55:46.720Z,9.47
2023-09-06T07:58:49.586Z,9.40
2023-09-06T08:01:53.392Z,11.73
2023-09-06T08:04:56.621Z,10.95
2023-09-06T08:07:59.896Z,13.13
2023-09-06T08:11:03.074Z,7.70
2023-09-06T08:14:05.934Z,8.53
2023-09-06T08:17:09.832Z,8.43
2023-09-06T08:20:15.855Z,8.45
2023-09-06T08:23:19.151Z,6.82
2023-09-06T08:26:21.986Z,5.83
2023-09-06T08:29:25.672Z,7.57
2023-09-06T08:32:28.570Z,6.53
2023-09-06T08:35:31.998Z,7.45
2023-09-06T08:38:35.143Z,9.80
2023-09-06T08:41:39.587Z,8.03
2023-09-06T08:44:45.217Z,7.10
2023-09-06T08:47:50.369Z,7.05
2023-09-06T08:50:56.354Z,8.13
2023-09-06T08:54:00.932Z,7.20
2023-09-06T08:57:04.357Z,6.70
2023-09-06T09:00:11.358Z,8.53
2023-09-06T09:03:14.464Z,6.15
2023-09-06T09:06:17.638Z,5.15
2023-09-06T09:09:21.508Z,6.47
2023-09-06T09:12:26.332Z,6.50
2023-09-06T09:15:33.767Z,5.93
2023-09-06T09:18:42.071Z,6.75
2023-09-06T09:21:45.072Z,6.95
2023-09-06T09:24:48.333Z,5.72
2023-09-06T09:27:59.783Z,5.60
2023-09-06T09:31:03.800Z,6.83
2023-09-06T09:34:06.743Z,6.85
2023-09-06T09:37:10.905Z,8.00
2023-09-06T09:40:31.619Z,5.30
2023-09-06T09:43:41.128Z,8.20
2023-09-06T09:46:45.356Z,6.13
2023-09-06T09:49:49.086Z,5.78
2023-09-06T09:52:53.744Z,5.45
2023-09-06T09:55:57.666Z,4.65
2023-09-06T09:59:04.403Z,5.93
2023-09-06T10:02:08.623Z,6.73
2023-09-06T10:05:18.228Z,6.25
2023-09-06T10:08:23.096Z,5.47
2023-09-06T10:11:28.160Z,4.95
2023-09-06T10:14:33.694Z,6.07
2023-09-06T10:17:37.075Z,5.80
2023-09-06T10:20:42.015Z,7.00
2023-09-06T10:23:48.368Z,5.15
2023-09-06T10:26:55.008Z,6.22
2023-09-06T10:30:04.577Z,7.23
2023-09-06T10:33:09.832Z,5.30
2023-09-06T10:36:17.618Z,6.25
2023-09-06T10:39:22.725Z,4.80
2023-09-06T10:42:25.785Z,5.35
2023-09-06T10:45:28.904Z,6.53
2023-09-06T10:48:32.158Z,5.47
2023-09-06T10:51:35.007Z,5.60
2023-09-06T10:54:46.295Z,5.43
2023-09-06T10:57:53.275Z,5.53
2023-09-06T11:01:14.878Z,5.77
2023-09-06T11:04:27.591Z,7.50
2023-09-06T11:07:50.051Z,7.75
2023-09-06T11:10:56.178Z,7.95
2023-09-06T11:14:02.684Z,7.93
2023-09-06T11:17:05.456Z,9.20
2023-09-06T11:20:13.791Z,5.53
2023-09-06T11:23:17.840Z,4.87
2023-09-06T11:26:21.241Z,8.25
2023-09-06T11:29:27.780Z,6.30
2023-09-06T11:32:33.623Z,4.70
2023-09-06T11:35:42.028Z,5.53
2023-09-06T11:38:46.528Z,8.73
2023-09-06T11:41:50.075Z,5.68
2023-09-06T11:44:55.400Z,5.62
2023-09-06T11:48:01.176Z,5.83
2023-09-06T11:51:10.182Z,5.13
2023-09-06T11:54:13.651Z,4.85
2023-09-06T11:57:32.167Z,11.00
2023-09-06T12:00:44.581Z,6.15
2023-09-06T12:03:49.081Z,6.90
2023-09-06T12:06:53.871Z,6.40
2023-09-06T12:10:06.598Z,6.07
2023-09-06T12:13:09.752Z,5.07
2023-09-06T12:16:13.341Z,6.90
2023-09-06T12:19:18.965Z,7.07
2023-09-06T12:22:22.832Z,5.13
2023-09-06T12:25:25.672Z,6.75
2023-09-06T12:28:30.799Z,4.85
2023-09-06T12:31:33.868Z,6.22
2023-09-06T12:34:37.076Z,4.83
2023-09-06T12:37:41.244Z,5.23
2023-09-06T12:40:44.846Z,4.70
2023-09-06T12:43:47.961Z,5.22
2023-09-06T12:46:51.217Z,4.65
2023-09-06T12:49:55.092Z,4.73
2023-09-06T12:52:58.436Z,5.60
2023-09-06T12:56:01.262Z,7.85
2023-09-06T12:59:06.039Z,5.05
2023-09-06T13:02:09.230Z,8.25
2023-09-06T13:05:12.536Z,5.13
2023-09-06T13:08:16.913Z,6.50
2023-09-06T13:11:23.617Z,4.68
2023-09-06T13:14:27.003Z,6.82
2023-09-06T13:17:30.595Z,6.07
2023-09-06T13:20:34.845Z,5.53
2023-09-06T13:23:37.897Z,4.73
2023-09-06T13:26:41.802Z,5.43
2023-09-06T13:29:45.254Z,5.35
2023-09-06T13:32:48.280Z,4.12
2023-09-06T13:35:51.671Z,5.30
2023-09-06T13:38:54.593Z,5.60
2023-09-06T13:41:57.796Z,5.43
2023-09-06T13:45:00.788Z,4.70
2023-09-06T13:48:04.379Z,5.82
2023-09-06T13:51:07.292Z,4.30
2023-09-06T13:54:10.643Z,5.63
2023-09-06T13:57:13.416Z,4.03
2023-09-06T14:00:17.810Z,7.65
2023-09-06T14:03:21.429Z,6.30
2023-09-06T14:06:24.758Z,5.43
2023-09-06T14:09:27.837Z,4.37
2023-09-06T14:12:30.837Z,4.93
2023-09-06T14:15:37.007Z,5.15
2023-09-06T14:22:00.092Z,6.97
2023-09-06T14:25:02.684Z,5.80
2023-09-06T14:28:05.947Z,5.68
2023-09-06T14:31:12.291Z,4.75
2023-09-06T14:34:16.869Z,8.43
2023-09-06T14:37:19.765Z,5.83
2023-09-06T14:40:22.778Z,4.37
2023-09-06T14:43:26.006Z,5.72
2023-09-06T14:46:29.103Z,5.97
2023-09-06T14:49:31.840Z,5.20
2023-09-06T14:52:34.950Z,4.63
2023-09-06T14:55:37.934Z,4.53
2023-09-06T14:58:42.642Z,4.75
2023-09-06T15:01:46.840Z,4.68
2023-09-06T15:04:51.204Z,5.75
2023-09-06T15:07:54.940Z,6.07
2023-09-06T15:11:00.547Z,8.17
2023-09-06T15:14:06.391Z,4.60
2023-09-06T15:17:09.884Z,7.28
2023-09-06T15:20:13.540Z,8.35
2023-09-06T15:23:17.445Z,6.93
2023-09-06T15:26:22.571Z,4.87
2023-09-06T15:29:26.099Z,6.30
2023-09-06T15:32:29.244Z,12.02
2023-09-06T15:35:32.871Z,7.55
2023-09-06T15:38:39.974Z,7.23
2023-09-06T15:41:43.300Z,6.77
2023-09-06T15:44:46.333Z,6.30
2023-09-06T15:47:51.412Z,4.72
2023-09-06T15:50:54.603Z,5.35
2023-09-06T15:53:58.173Z,6.53
2023-09-06T15:57:01.251Z,5.27
2023-09-06T16:00:24.362Z,5.43
2023-09-06T16:03:34.154Z,5.15
2023-09-06T16:06:37.831Z,6.22
2023-09-06T16:09:43.014Z,4.73
2023-09-06T16:12:49.175Z,7.13
2023-09-06T16:15:58.054Z,5.80
2023-09-06T16:19:04.022Z,5.62
2023-09-06T16:22:08.506Z,5.20
2023-09-06T16:25:12.684Z,4.83
2023-09-06T16:28:21.103Z,4.97
2023-09-06T16:31:26.684Z,4.72
2023-09-06T16:34:31.405Z,6.90
2023-09-06T16:37:36.233Z,5.95
2023-09-06T16:40:43.772Z,5.40
2023-09-06T16:43:47.482Z,6.30
2023-09-06T16:46:52.537Z,6.82
2023-09-06T16:49:56.032Z,5.12
2023-09-06T16:52:59.387Z,7.15
2023-09-06T16:56:04.588Z,7.87
2023-09-06T16:59:10.385Z,7.67
2023-09-06T17:02:13.680Z,9.07
2023-09-06T17:05:17.470Z,6.57
2023-09-06T17:08:20.530Z,7.28
2023-09-06T17:11:24.481Z,7.37
2023-09-06T17:14:27.793Z,8.23
2023-09-06T17:17:31.991Z,9.68
2023-09-06T17:20:36.766Z,7.60
2023-09-06T17:24:00.678Z,9.20
2023-09-06T17:27:06.065Z,6.30
2023-09-06T17:30:11.619Z,7.87
2023-09-06T17:33:16.772Z,9.65
2023-09-06T17:36:20.681Z,11.60
2023-09-06T17:39:24.788Z,6.85
2023-09-06T17:42:32.892Z,7.07
2023-09-06T17:45:36.217Z,7.10
2023-09-06T17:48:40.678Z,10.45
2023-09-06T17:51:46.088Z,7.05
2023-09-06T17:54:50.727Z,10.13
2023-09-06T17:57:55.114Z,6.57
2023-09-06T18:01:00.333Z,5.97
2023-09-06T18:04:11.828Z,6.40
2023-09-06T18:07:18.408Z,5.15
2023-09-06T18:10:26.656Z,8.05
2023-09-06T18:13:31.526Z,6.43
2023-09-06T18:16:43.877Z,6.07
2023-09-06T18:19:48.507Z,6.87
2023-09-06T18:22:52.468Z,10.50
2023-09-06T18:25:57.864Z,7.35
2023-09-06T18:29:03.278Z,6.60
2023-09-06T18:32:09.949Z,5.83
2023-09-06T18:35:18.742Z,7.10
2023-09-06T18:38:23.604Z,7.45
2023-09-06T18:41:29.454Z,8.38
2023-09-06T18:44:32.948Z,7.27
2023-09-06T18:47:51.542Z,6.50
2023-09-06T18:50:55.929Z,9.55
2023-09-06T18:54:02.941Z,10.02
2023-09-06T18:57:12.220Z,9.52
2023-09-06T19:00:23.623Z,7.67
2023-09-06T19:03:31.629Z,8.00
2023-09-06T19:06:36.099Z,8.32
2023-09-06T19:09:41.156Z,11.27
2023-09-06T19:12:47.621Z,11.52
2023-09-06T19:15:53.537Z,13.53
2023-09-06T19:19:00.073Z,7.40
2023-09-06T19:22:05.625Z,7.90
2023-09-06T19:25:11.174Z,7.45
2023-09-06T19:28:15.208Z,8.63
2023-09-06T19:31:22.526Z,7.57
2023-09-06T19:34:33.650Z,7.20
2023-09-06T19:37:39.693Z,6.25
2023-09-06T19:40:44.309Z,11.65
2023-09-06T19:43:50.081Z,7.20
2023-09-06T19:46:57.352Z,8.10
2023-09-06T19:50:01.113Z,7.93
2023-09-06T19:53:07.820Z,7.97
2023-09-06T19:56:18.387Z,8.15
2023-09-06T19:59:22.970Z,9.45
2023-09-06T20:02:29.242Z,11.80
2023-09-06T20:05:34.958Z,8.83
2023-09-06T20:08:39.328Z,8.40
2023-09-06T20:11:44.522Z,7.45
2023-09-06T20:14:50.040Z,9.73
2023-09-06T20:17:57.680Z,8.10
2023-09-06T20:21:07.308Z,9.13
2023-09-06T20:24:14.202Z,8.13
2023-09-06T20:27:18.270Z,7.68
2023-09-06T20:30:25.430Z,8.90
2023-09-06T20:33:29.192Z,7.47
2023-09-06T20:36:34.747Z,7.97
2023-09-06T20:39:38.253Z,7.28
2023-09-06T20:42:42.188Z,9.02
2023-09-06T20:45:46.510Z,12.55
2023-09-06T20:48:50.360Z,11.57
2023-09-06T20:51:53.847Z,10.93
2023-09-06T20:54:57.555Z,11.52
2023-09-06T20:58:00.912Z,12.00
2023-09-06T21:01:20.761Z,11.15
2023-09-06T21:04:24.438Z,11.20
2023-09-06T21:07:27.639Z,12.50
2023-09-06T21:10:31.197Z,11.75
2023-09-06T21:13:34.513Z,15.10
2023-09-06T21:16:37.328Z,11.38
2023-09-06T21:19:40.726Z,15.33
2023-09-06T21:22:43.538Z,10.53
2023-09-06T21:25:47.138Z,14.27
2023-09-06T21:28:49.843Z,10.95
2023-09-06T21:31:52.945Z,10.80
2023-09-06T21:34:56.067Z,10.87
2023-09-06T21:37:59.102Z,10.53
2023-09-06T21:41:02.757Z,10.70
2023-09-06T21:44:05.988Z,8.60
2023-09-06T21:47:08.884Z,11.15
2023-09-06T21:50:12.086Z,10.83
2023-09-06T21:53:14.868Z,9.03
2023-09-06T21:56:18.140Z,12.10
2023-09-06T21:59:22.085Z,10.05
2023-09-06T22:02:24.626Z,9.25
2023-09-06T22:05:45.998Z,9.73
2023-09-06T22:09:07.330Z,9.60
2023-09-06T22:12:28.345Z,8.88
2023-09-06T22:15:31.832Z,8.93
2023-09-06T22:18:34.524Z,8.00
2023-09-06T22:21:37.574Z,11.03
2023-09-06T22:24:40.396Z,9.40
2023-09-06T22:27:44.264Z,11.02
2023-09-06T22:30:47.402Z,9.95
2023-09-06T22:33:50.786Z,9.18
2023-09-06T22:36:53.642Z,8.67
2023-09-06T22:39:56.705Z,9.70
2023-09-06T22:42:59.510Z,9.65
2023-09-06T22:46:02.826Z,10.63
2023-09-06T22:49:05.757Z,9.50
2023-09-06T22:52:10.690Z,9.00
2023-09-06T22:55:13.547Z,10.83
2023-09-06T22:58:16.617Z,10.45
2023-09-06T23:01:19.554Z,10.02
2023-09-06T23:04:22.769Z,10.20
2023-09-06T23:07:27.122Z,10.40
2023-09-06T23:10:30.633Z,9.77
2023-09-06T23:13:33.502Z,9.98
2023-09-06T23:16:37.083Z,8.30
2023-09-06T23:19:49.796Z,11.43
2023-09-06T23:22:56.100Z,12.43
2023-09-06T23:26:00.125Z,9.93
2023-09-06T23:29:08.342Z,9.52
2023-09-06T23:32:15.829Z,9.75
2023-09-06T23:35:22.015Z,9.63
2023-09-06T23:38:26.345Z,9.67
2023-09-06T23:41:29.634Z,10.97
2023-09-06T23:44:32.515Z,9.38
2023-09-06T23:47:36.421Z,10.70
2023-09-06T23:50:39.244Z,8.75
2023-09-06T23:53:42.366Z,12.53
2023-09-06T23:56:45.053Z,9.83
2023-09-06T23:59:48.263Z,11.27
